Time;durP1;ratioP1;P1;durP2;ratioP2;P2;SDS_P1;SDS_P2;PMS_P1;PMS_P2;Temp;Humidity;BMP_temperature;BMP_pressure;BME280_temperature;BME280_humidity;BME280_pressure;Samples;Min_cycle;Max_cycle;Signal;HPM_P1;HPM_P2
2021/05/21 00:00:44;;;;;;;6.65;3.97;;;;;;;;;;5054613;28;20155;-66
2021/05/21 00:03:10;;;;;;;8.63;4.50;;;;;;;;;;5055146;28;20497;-66
2021/05/21 00:05:37;;;;;;;8.00;4.40;;;;;;;;;;5054641;28;20742;-66
2021/05/21 00:08:03;;;;;;;7.00;4.47;;;;;;;;;;5054429;28;20032;-66
2021/05/21 00:10:30;;;;;;;7.97;4.85;;;;;;;;;;5054770;28;20025;-66
2021/05/21 00:12:56;;;;;;;7.28;4.68;;;;;;;;;;5054839;28;20114;-66
2021/05/21 00:15:23;;;;;;;7.43;4.68;;;;;;;;;;5054346;28;20017;-66
2021/05/21 00:17:49;;;;;;;10.05;4.78;;;;;;;;;;5054404;28;20025;-66
2021/05/21 00:20:16;;;;;;;9.75;5.13;;;;;;;;;;5054675;28;20039;-65
2021/05/21 00:22:42;;;;;;;6.45;4.55;;;;;;;;;;5053980;28;20029;-66
2021/05/21 00:25:09;;;;;;;7.30;4.70;;;;;;;;;;5054197;28;20163;-66
2021/05/21 00:27:35;;;;;;;9.40;4.72;;;;;;;;;;5053246;28;20033;-66
2021/05/21 00:30:01;;;;;;;8.82;4.32;;;;;;;;;;5054333;28;20029;-66
2021/05/21 00:32:28;;;;;;;8.73;4.43;;;;;;;;;;5054429;28;20035;-66
2021/05/21 00:34:54;;;;;;;6.90;4.78;;;;;;;;;;5054483;28;20078;-66
2021/05/21 00:37:20;;;;;;;8.75;5.32;;;;;;;;;;5056495;28;20112;-66
2021/05/21 00:39:47;;;;;;;8.80;5.07;;;;;;;;;;5053685;28;20056;-66
2021/05/21 00:42:13;;;;;;;5.55;4.10;;;;;;;;;;5054287;28;20062;-66
2021/05/21 00:44:40;;;;;;;8.77;4.68;;;;;;;;;;5054148;28;20051;-66
2021/05/21 00:47:06;;;;;;;8.70;5.82;;;;;;;;;;5053620;28;20029;-66
2021/05/21 00:49:33;;;;;;;7.70;5.18;;;;;;;;;;5053749;28;20419;-66
2021/05/21 00:52:02;;;;;;;7.05;5.00;;;;;;;;;;5053977;28;20029;-66
2021/05/21 00:54:28;;;;;;;13.95;5.90;;;;;;;;;;5053744;28;20082;-66
2021/05/21 00:56:55;;;;;;;9.50;5.50;;;;;;;;;;5053365;28;20017;-66
2021/05/21 00:59:21;;;;;;;8.88;5.03;;;;;;;;;;5052023;28;20025;-66
2021/05/21 01:01:48;;;;;;;8.65;5.80;;;;;;;;;;5052956;28;20068;-66
2021/05/21 01:04:14;;;;;;;11.93;5.32;;;;;;;;;;5053977;28;20378;-66
2021/05/21 01:06:41;;;;;;;10.77;5.40;;;;;;;;;;5053351;28;20035;-66
2021/05/21 01:09:07;;;;;;;8.23;5.22;;;;;;;;;;5053094;28;20092;-66
2021/05/21 01:11:34;;;;;;;8.63;5.47;;;;;;;;;;5053514;28;20435;-66
2021/05/21 01:14:00;;;;;;;8.27;5.50;;;;;;;;;;5053604;28;20036;-66
2021/05/21 01:16:26;;;;;;;11.02;5.78;;;;;;;;;;5053584;28;20059;-66
2021/05/21 01:18:53;;;;;;;12.88;7.15;;;;;;;;;;5053249;28;20079;-66
2021/05/21 01:21:19;;;;;;;8.05;5.25;;;;;;;;;;5053141;28;20040;-66
2021/05/21 01:23:46;;;;;;;8.35;5.75;;;;;;;;;;5053172;28;20506;-66
2021/05/21 01:26:13;;;;;;;11.88;5.88;;;;;;;;;;5053435;28;20029;-66
2021/05/21 01:28:39;;;;;;;9.00;5.70;;;;;;;;;;5052785;28;20024;-66
2021/05/21 01:31:05;;;;;;;9.15;6.10;;;;;;;;;;5052868;28;20497;-66
2021/05/21 01:33:32;;;;;;;10.30;6.10;;;;;;;;;;5051945;28;20064;-66
2021/05/21 01:35:58;;;;;;;15.13;6.05;;;;;;;;;;5053373;28;20029;-66
2021/05/21 01:38:24;;;;;;;11.18;6.22;;;;;;;;;;5052783;28;20017;-66
2021/05/21 01:40:52;;;;;;;8.55;5.45;;;;;;;;;;5051970;28;20021;-66
2021/05/21 01:43:18;;;;;;;10.65;7.15;;;;;;;;;;5053009;28;20025;-66
2021/05/21 01:45:44;;;;;;;9.77;6.63;;;;;;;;;;5052635;28;20616;-66
2021/05/21 01:48:11;;;;;;;9.32;5.95;;;;;;;;;;5052709;28;20036;-66
2021/05/21 01:50:38;;;;;;;10.43;6.07;;;;;;;;;;5052397;28;20028;-66
2021/05/21 01:53:04;;;;;;;13.05;7.40;;;;;;;;;;5052569;28;20151;-66
2021/05/21 01:55:30;;;;;;;8.15;5.97;;;;;;;;;;5053036;28;20079;-66
2021/05/21 01:57:57;;;;;;;12.82;6.82;;;;;;;;;;5052421;28;20323;-66
2021/05/21 02:00:23;;;;;;;11.95;6.30;;;;;;;;;;5053528;28;20037;-66
2021/05/21 02:02:50;;;;;;;10.43;5.07;;;;;;;;;;5067832;28;20587;-66
2021/05/21 02:05:16;;;;;;;9.13;6.10;;;;;;;;;;5052342;28;20033;-66
2021/05/21 02:07:43;;;;;;;9.07;5.72;;;;;;;;;;5054812;28;20454;-66
2021/05/21 02:10:10;;;;;;;8.80;5.05;;;;;;;;;;5053749;28;20090;-67
2021/05/21 02:12:36;;;;;;;11.57;6.25;;;;;;;;;;5052581;28;20025;-66
2021/05/21 02:15:09;;;;;;;13.38;5.63;;;;;;;;;;5052760;28;20017;-66
2021/05/21 02:17:36;;;;;;;11.18;6.53;;;;;;;;;;5052256;28;20017;-66
2021/05/21 02:20:03;;;;;;;9.48;6.13;;;;;;;;;;5052251;28;20033;-66
2021/05/21 02:22:30;;;;;;;10.15;5.25;;;;;;;;;;5052072;28;20029;-66
2021/05/21 02:24:57;;;;;;;9.80;6.07;;;;;;;;;;5054867;28;20034;-66
2021/05/21 02:27:24;;;;;;;11.25;5.32;;;;;;;;;;5059152;28;20031;-66
2021/05/21 02:29:50;;;;;;;9.48;6.57;;;;;;;;;;5057344;28;20040;-66
2021/05/21 02:32:16;;;;;;;10.80;5.30;;;;;;;;;;5062793;28;20038;-66
2021/05/21 02:34:43;;;;;;;10.50;6.20;;;;;;;;;;5062373;28;20020;-66
2021/05/21 02:37:09;;;;;;;11.63;6.28;;;;;;;;;;5068683;28;20032;-66
2021/05/21 02:39:36;;;;;;;9.95;5.93;;;;;;;;;;5052567;28;20029;-66
2021/05/21 02:42:02;;;;;;;8.52;6.15;;;;;;;;;;5052360;28;20383;-67
2021/05/21 02:44:28;;;;;;;8.77;5.07;;;;;;;;;;5052440;28;20467;-66
2021/05/21 02:46:55;;;;;;;8.30;5.90;;;;;;;;;;5051400;28;20029;-67
2021/05/21 02:49:21;;;;;;;10.15;6.43;;;;;;;;;;5051020;28;20029;-66
2021/05/21 02:51:49;;;;;;;13.70;6.95;;;;;;;;;;5053825;28;20025;-66
2021/05/21 02:54:15;;;;;;;13.80;6.60;;;;;;;;;;5055662;28;20493;-67
2021/05/21 02:56:42;;;;;;;7.72;5.82;;;;;;;;;;5055105;28;20119;-67
2021/05/21 02:59:08;;;;;;;12.30;6.03;;;;;;;;;;5054908;28;20122;-66
2021/05/21 03:01:34;;;;;;;9.85;5.80;;;;;;;;;;5055361;28;20041;-66
2021/05/21 03:04:00;;;;;;;9.05;5.78;;;;;;;;;;5055758;28;20354;-66
2021/05/21 03:06:27;;;;;;;9.57;5.97;;;;;;;;;;5052506;28;20052;-66
2021/05/21 03:08:53;;;;;;;8.35;5.72;;;;;;;;;;5054821;28;20044;-67
2021/05/21 03:11:20;;;;;;;11.13;5.45;;;;;;;;;;5054327;28;20055;-66
2021/05/21 03:13:46;;;;;;;9.68;5.60;;;;;;;;;;5055836;28;20454;-67
2021/05/21 03:16:12;;;;;;;11.88;7.15;;;;;;;;;;5070843;28;20013;-66
2021/05/21 03:18:39;;;;;;;9.55;6.18;;;;;;;;;;5070182;28;20079;-66
2021/05/21 03:21:06;;;;;;;8.88;5.53;;;;;;;;;;5062272;28;20465;-67
2021/05/21 03:23:32;;;;;;;9.35;5.55;;;;;;;;;;5063703;28;20025;-67
2021/05/21 03:25:59;;;;;;;8.15;5.93;;;;;;;;;;5064676;28;20103;-66
2021/05/21 03:28:25;;;;;;;7.82;5.55;;;;;;;;;;5064401;28;20021;-67
2021/05/21 03:30:52;;;;;;;10.50;6.18;;;;;;;;;;5063789;28;20489;-67
2021/05/21 03:33:18;;;;;;;13.43;6.00;;;;;;;;;;5064703;28;20020;-67
2021/05/21 03:35:45;;;;;;;10.55;6.15;;;;;;;;;;5065575;28;20021;-67
2021/05/21 03:38:11;;;;;;;9.82;6.07;;;;;;;;;;5064990;28;20040;-67
2021/05/21 03:40:38;;;;;;;11.52;6.30;;;;;;;;;;5063427;28;20028;-67
2021/05/21 03:43:05;;;;;;;9.40;5.78;;;;;;;;;;5065936;28;20031;-67
2021/05/21 03:45:34;;;;;;;11.43;5.60;;;;;;;;;;5063754;28;20467;-67
2021/05/21 03:48:01;;;;;;;13.90;5.75;;;;;;;;;;5064659;28;20098;-67
2021/05/21 03:50:27;;;;;;;13.73;5.95;;;;;;;;;;5065012;28;20077;-66
2021/05/21 03:52:54;;;;;;;10.38;6.00;;;;;;;;;;5063243;28;20028;-66
2021/05/21 03:55:20;;;;;;;9.98;5.85;;;;;;;;;;5064907;28;20028;-66
2021/05/21 03:57:47;;;;;;;9.23;5.53;;;;;;;;;;5064013;28;20482;-66
2021/05/21 04:00:14;;;;;;;10.73;6.32;;;;;;;;;;5064006;28;20025;-67
2021/05/21 04:02:40;;;;;;;8.10;5.57;;;;;;;;;;5064326;28;20057;-67
2021/05/21 04:05:07;;;;;;;7.65;4.85;;;;;;;;;;5062929;28;20032;-67
2021/05/21 04:07:33;;;;;;;8.27;5.47;;;;;;;;;;5063414;28;20025;-67
2021/05/21 04:09:59;;;;;;;12.18;5.57;;;;;;;;;;5064085;28;20108;-67
2021/05/21 04:12:26;;;;;;;7.82;5.55;;;;;;;;;;5065422;28;20021;-67
2021/05/21 04:14:52;;;;;;;10.65;6.15;;;;;;;;;;5064161;28;20070;-67
2021/05/21 04:17:20;;;;;;;8.13;4.95;;;;;;;;;;5061295;28;20031;-67
2021/05/21 04:19:46;;;;;;;9.85;5.00;;;;;;;;;;5063859;28;20021;-67
2021/05/21 04:22:13;;;;;;;10.75;5.70;;;;;;;;;;5062465;28;20116;-66
2021/05/21 04:24:39;;;;;;;10.23;4.60;;;;;;;;;;5063434;28;20040;-67
2021/05/21 04:27:06;;;;;;;8.40;5.03;;;;;;;;;;5056249;28;20057;-66
2021/05/21 04:29:32;;;;;;;8.45;5.20;;;;;;;;;;5054197;28;20028;-67
2021/05/21 04:31:58;;;;;;;8.55;5.22;;;;;;;;;;5054192;28;20470;-67
2021/05/21 04:34:25;;;;;;;7.78;4.78;;;;;;;;;;5054403;28;20017;-67
2021/05/21 04:36:51;;;;;;;9.15;5.28;;;;;;;;;;5060056;28;20394;-66
2021/05/21 04:39:17;;;;;;;9.32;5.18;;;;;;;;;;5062903;28;20070;-66
2021/05/21 04:41:44;;;;;;;8.40;4.90;;;;;;;;;;5063376;28;20520;-66
2021/05/21 04:44:13;;;;;;;9.05;4.85;;;;;;;;;;5063039;28;20029;-67
2021/05/21 04:46:39;;;;;;;8.30;4.78;;;;;;;;;;5060235;28;20047;-66
2021/05/21 04:49:06;;;;;;;7.82;4.57;;;;;;;;;;5062417;28;20033;-66
2021/05/21 04:51:32;;;;;;;5.78;4.28;;;;;;;;;;5061242;28;20028;-66
2021/05/21 04:54:05;;;;;;;4.88;3.90;;;;;;;;;;5061408;28;20053;-66
2021/05/21 04:56:31;;;;;;;6.95;4.38;;;;;;;;;;5079501;28;20033;-66
2021/05/21 04:58:58;;;;;;;8.25;4.75;;;;;;;;;;5058614;28;20072;-67
2021/05/21 05:01:24;;;;;;;7.40;4.82;;;;;;;;;;5054411;28;20083;-66
2021/05/21 05:03:50;;;;;;;7.80;4.53;;;;;;;;;;5053628;28;20036;-66
2021/05/21 05:06:16;;;;;;;6.90;4.30;;;;;;;;;;5053276;28;20033;-67
2021/05/21 05:08:43;;;;;;;7.65;4.78;;;;;;;;;;5053535;28;20078;-66
2021/05/21 05:11:09;;;;;;;6.10;4.13;;;;;;;;;;5053400;28;20094;-66
2021/05/21 05:13:36;;;;;;;8.52;3.85;;;;;;;;;;5052180;28;20059;-67
2021/05/21 05:16:02;;;;;;;8.93;4.15;;;;;;;;;;5053738;28;20047;-66
2021/05/21 05:18:29;;;;;;;5.60;3.85;;;;;;;;;;5053552;28;20060;-66
2021/05/21 05:20:55;;;;;;;7.93;4.25;;;;;;;;;;5068824;28;20058;-67
2021/05/21 05:23:21;;;;;;;5.88;3.97;;;;;;;;;;5050323;28;20131;-67
2021/05/21 05:25:48;;;;;;;6.60;3.28;;;;;;;;;;5060274;28;20029;-66
2021/05/21 05:28:16;;;;;;;6.90;3.95;;;;;;;;;;5052525;28;20091;-66
2021/05/21 05:30:42;;;;;;;5.45;3.45;;;;;;;;;;5052877;28;20059;-67
2021/05/21 05:33:11;;;;;;;6.53;3.22;;;;;;;;;;5053211;28;20025;-67
2021/05/21 05:35:37;;;;;;;7.38;3.28;;;;;;;;;;5053270;28;20017;-66
2021/05/21 05:38:39;;;;;;;6.88;3.55;;;;;;;;;;5062798;28;20543;-67
2021/05/21 05:41:05;;;;;;;4.40;3.05;;;;;;;;;;5048608;28;20039;-64
2021/05/21 05:43:32;;;;;;;5.32;3.50;;;;;;;;;;5056831;28;20025;-67
2021/05/21 05:45:59;;;;;;;5.35;3.05;;;;;;;;;;5056648;28;20596;-67
2021/05/21 05:48:25;;;;;;;4.30;3.05;;;;;;;;;;5061988;28;20095;-66
2021/05/21 05:50:52;;;;;;;7.60;3.30;;;;;;;;;;5057131;28;20551;-65
2021/05/21 05:53:19;;;;;;;5.50;3.22;;;;;;;;;;5058799;28;20021;-66
2021/05/21 05:55:45;;;;;;;5.10;2.97;;;;;;;;;;5061855;28;20381;-66
2021/05/21 05:58:12;;;;;;;5.38;2.80;;;;;;;;;;5060004;28;20405;-66
2021/05/21 06:00:39;;;;;;;7.00;2.70;;;;;;;;;;5066366;28;20074;-67
2021/05/21 06:03:06;;;;;;;5.18;3.30;;;;;;;;;;5075868;28;20036;-66
2021/05/21 06:05:32;;;;;;;5.40;2.78;;;;;;;;;;5059299;28;20047;-66
2021/05/21 06:08:01;;;;;;;5.60;2.55;;;;;;;;;;5060268;28;20052;-65
2021/05/21 06:10:27;;;;;;;4.70;2.60;;;;;;;;;;5059527;28;20112;-66
2021/05/21 06:12:58;;;;;;;4.32;2.50;;;;;;;;;;5060838;28;20021;-67
2021/05/21 06:15:25;;;;;;;6.15;3.00;;;;;;;;;;5057357;28;20425;-66
2021/05/21 06:17:54;;;;;;;7.70;2.67;;;;;;;;;;5060250;28;20029;-66
2021/05/21 06:20:20;;;;;;;14.35;3.17;;;;;;;;;;5058924;28;20016;-67
2021/05/21 06:22:46;;;;;;;6.47;2.45;;;;;;;;;;5059956;28;20079;-66
2021/05/21 06:25:13;;;;;;;4.85;2.88;;;;;;;;;;5059822;28;20489;-65
2021/05/21 06:27:40;;;;;;;6.47;3.17;;;;;;;;;;5059337;28;20025;-65
2021/05/21 06:30:08;;;;;;;5.95;2.40;;;;;;;;;;5058430;28;20029;-66
2021/05/21 06:32:35;;;;;;;5.65;2.47;;;;;;;;;;5060170;28;20410;-66
2021/05/21 06:35:01;;;;;;;3.70;2.25;;;;;;;;;;5057300;28;20055;-65
2021/05/21 06:37:29;;;;;;;3.55;2.47;;;;;;;;;;5068722;28;20017;-66
2021/05/21 06:39:55;;;;;;;5.28;3.22;;;;;;;;;;5060372;28;20035;-66
2021/05/21 06:42:22;;;;;;;7.13;2.60;;;;;;;;;;5067282;28;20024;-67
2021/05/21 06:44:48;;;;;;;7.20;3.30;;;;;;;;;;5070260;28;20037;-65
2021/05/21 06:47:14;;;;;;;6.60;2.20;;;;;;;;;;5057932;28;20482;-66
2021/05/21 06:49:42;;;;;;;3.67;2.40;;;;;;;;;;5066539;28;20028;-66
2021/05/21 06:52:08;;;;;;;6.60;2.78;;;;;;;;;;5060842;28;20104;-66
2021/05/21 06:54:36;;;;;;;6.72;2.92;;;;;;;;;;5065866;28;20048;-66
2021/05/21 06:57:02;;;;;;;7.15;2.55;;;;;;;;;;5067340;28;20085;-65
2021/05/21 06:59:29;;;;;;;5.07;2.83;;;;;;;;;;5069893;28;20395;-66
2021/05/21 07:01:55;;;;;;;5.40;2.70;;;;;;;;;;5067501;28;20040;-66
2021/05/21 07:04:21;;;;;;;5.82;2.83;;;;;;;;;;5065806;28;20035;-66
2021/05/21 07:06:48;;;;;;;4.35;2.47;;;;;;;;;;5069459;28;20025;-66
2021/05/21 07:09:14;;;;;;;8.70;2.63;;;;;;;;;;5065048;28;20492;-66
2021/05/21 07:11:41;;;;;;;5.55;2.50;;;;;;;;;;5065853;28;20032;-66
2021/05/21 07:14:10;;;;;;;5.97;2.20;;;;;;;;;;5070225;28;20059;-66
2021/05/21 07:16:36;;;;;;;5.75;2.70;;;;;;;;;;5059730;28;20039;-65
2021/05/21 07:19:02;;;;;;;8.45;2.88;;;;;;;;;;5057715;28;20044;-65
2021/05/21 07:21:29;;;;;;;4.70;2.03;;;;;;;;;;5058690;28;20551;-66
2021/05/21 07:23:55;;;;;;;2.60;1.95;;;;;;;;;;5061409;28;20036;-66
2021/05/21 07:26:23;;;;;;;3.65;1.70;;;;;;;;;;5058044;28;20430;-65
2021/05/21 07:28:50;;;;;;;5.43;1.65;;;;;;;;;;5055676;28;20025;-66
2021/05/21 07:31:17;;;;;;;9.07;2.25;;;;;;;;;;5059906;28;20025;-66
2021/05/21 07:33:44;;;;;;;3.03;1.65;;;;;;;;;;5051125;28;20065;-66
2021/05/21 07:36:10;;;;;;;7.15;1.85;;;;;;;;;;5052300;28;20073;-67
2021/05/21 07:38:37;;;;;;;5.45;1.75;;;;;;;;;;5057305;28;20379;-66
2021/05/21 07:41:03;;;;;;;4.70;1.70;;;;;;;;;;5063247;28;20025;-66
2021/05/21 07:43:30;;;;;;;6.25;1.67;;;;;;;;;;5063443;28;20021;-66
2021/05/21 07:45:57;;;;;;;3.30;1.55;;;;;;;;;;5065149;28;20025;-67
2021/05/21 07:48:26;;;;;;;4.68;1.30;;;;;;;;;;5064565;28;20426;-67
2021/05/21 07:50:52;;;;;;;3.85;1.52;;;;;;;;;;5063907;28;20071;-67
2021/05/21 07:53:18;;;;;;;3.22;1.50;;;;;;;;;;5062931;28;20021;-67
2021/05/21 07:55:45;;;;;;;4.20;1.75;;;;;;;;;;5061690;28;20070;-69
2021/05/21 07:58:13;;;;;;;3.58;1.33;;;;;;;;;;5063802;28;20036;-67
2021/05/21 08:00:39;;;;;;;4.25;1.48;;;;;;;;;;5063459;28;20021;-67
2021/05/21 08:03:06;;;;;;;3.38;1.67;;;;;;;;;;5059489;28;20083;-66
2021/05/21 08:05:33;;;;;;;5.78;1.95;;;;;;;;;;5056157;28;20017;-67
2021/05/21 08:07:59;;;;;;;4.30;1.75;;;;;;;;;;5055478;28;20052;-69
2021/05/21 08:10:25;;;;;;;4.95;1.70;;;;;;;;;;5059466;28;20033;-65
2021/05/21 08:15:42;;;;;;;2.85;1.52;;;;;;;;;;5060066;28;20039;-67
2021/05/21 08:18:08;;;;;;;3.53;1.63;;;;;;;;;;5062596;28;20386;-68
2021/05/21 08:20:35;;;;;;;9.90;1.80;;;;;;;;;;5052883;28;20060;-68
2021/05/21 08:26:09;;;;;;;3.42;1.35;;;;;;;;;;5056015;28;20031;-66
2021/05/21 08:28:36;;;;;;;5.07;1.52;;;;;;;;;;5063485;28;20078;-68
2021/05/21 08:31:03;;;;;;;2.45;1.23;;;;;;;;;;5061513;28;20095;-68
2021/05/21 08:33:29;;;;;;;2.08;1.35;;;;;;;;;;5063609;28;20089;-67
2021/05/21 08:35:55;;;;;;;4.10;1.70;;;;;;;;;;5060575;28;20017;-69
2021/05/21 08:38:22;;;;;;;3.97;2.03;;;;;;;;;;5062430;28;20107;-66
2021/05/21 08:40:48;;;;;;;3.25;1.30;;;;;;;;;;5064443;28;20431;-67
2021/05/21 08:43:15;;;;;;;3.45;1.77;;;;;;;;;;5062117;28;20154;-67
2021/05/21 08:45:41;;;;;;;2.75;1.50;;;;;;;;;;5063760;28;20028;-67
2021/05/21 08:48:20;;;;;;;4.32;0.90;;;;;;;;;;5061906;28;20484;-67
2021/05/21 08:50:49;;;;;;;2.73;0.80;;;;;;;;;;5063140;28;20168;-67
2021/05/21 08:53:15;;;;;;;3.25;0.75;;;;;;;;;;5062454;28;20116;-66
2021/05/21 08:55:42;;;;;;;2.15;0.77;;;;;;;;;;5062426;28;20053;-66
2021/05/21 08:58:14;;;;;;;1.63;0.70;;;;;;;;;;5062124;28;20024;-66
2021/05/21 09:00:40;;;;;;;1.65;0.80;;;;;;;;;;5061325;28;20425;-67
2021/05/21 09:03:17;;;;;;;3.03;1.08;;;;;;;;;;5063190;28;20032;-67
2021/05/21 09:05:59;;;;;;;2.70;0.90;;;;;;;;;;5062157;28;20013;-66
2021/05/21 09:08:43;;;;;;;3.33;0.90;;;;;;;;;;5060887;28;20117;-68
2021/05/21 09:11:21;;;;;;;4.95;1.30;;;;;;;;;;5063276;28;20071;-67
2021/05/21 09:13:50;;;;;;;5.65;0.88;;;;;;;;;;5062876;28;20025;-67
2021/05/21 09:16:20;;;;;;;5.13;1.27;;;;;;;;;;5062641;28;20017;-66
2021/05/21 09:18:46;;;;;;;;;;;;;;;;;;5062683;28;20301;-66
2021/05/21 09:21:17;;;;;;;7.22;1.33;;;;;;;;;;5063653;28;20285;-67
2021/05/21 09:24:01;;;;;;;8.88;1.40;;;;;;;;;;5062531;28;20027;-68
2021/05/21 09:26:44;;;;;;;12.05;1.73;;;;;;;;;;5059989;28;20027;-67
2021/05/21 09:29:12;;;;;;;6.28;1.48;;;;;;;;;;5060127;28;20115;-67
2021/05/21 09:31:56;;;;;;;12.48;1.55;;;;;;;;;;5061877;28;20024;-67
2021/05/21 09:34:33;;;;;;;7.68;1.20;;;;;;;;;;5060894;28;20365;-68
2021/05/21 09:36:59;;;;;;;7.72;1.48;;;;;;;;;;5059535;28;20021;-67
2021/05/21 09:39:25;;;;;;;3.50;1.20;;;;;;;;;;5062137;28;20031;-66
2021/05/21 09:41:53;;;;;;;6.97;1.67;;;;;;;;;;5062436;28;20020;-67
2021/05/21 09:44:20;;;;;;;10.40;1.45;;;;;;;;;;5061177;28;20028;-66
2021/05/21 09:46:48;;;;;;;4.22;1.15;;;;;;;;;;5062738;28;20021;-67
2021/05/21 09:49:28;;;;;;;8.25;1.35;;;;;;;;;;5063799;28;20028;-68
2021/05/21 09:51:55;;;;;;;6.90;1.27;;;;;;;;;;5060578;28;20063;-67
2021/05/21 09:54:22;;;;;;;8.88;1.40;;;;;;;;;;5059456;28;20021;-69
2021/05/21 09:57:05;;;;;;;4.75;1.20;;;;;;;;;;5060692;28;20057;-67
2021/05/21 09:59:38;;;;;;;5.82;1.08;;;;;;;;;;5060967;28;20024;-68
2021/05/21 10:02:23;;;;;;;5.35;1.48;;;;;;;;;;5057759;28;20135;-66
2021/05/21 10:04:50;;;;;;;6.68;1.35;;;;;;;;;;5062486;28;20095;-72
2021/05/21 10:07:17;;;;;;;8.75;1.67;;;;;;;;;;5057965;28;20075;-74
2021/05/21 10:09:43;;;;;;;8.55;1.73;;;;;;;;;;5056335;28;20478;-68
2021/05/21 10:12:10;;;;;;;4.70;1.10;;;;;;;;;;5058456;28;20044;-69
2021/05/21 10:14:36;;;;;;;9.65;1.90;;;;;;;;;;5059516;28;20103;-68
2021/05/21 10:17:03;;;;;;;7.75;2.10;;;;;;;;;;5060324;28;20024;-67
2021/05/21 10:19:31;;;;;;;5.63;1.33;;;;;;;;;;5061094;28;20021;-67
2021/05/21 10:21:58;;;;;;;4.43;1.33;;;;;;;;;;5056616;28;20763;-67
2021/05/21 10:24:25;;;;;;;4.90;1.38;;;;;;;;;;5056562;28;20062;-69
2021/05/21 10:26:56;;;;;;;8.73;1.90;;;;;;;;;;5059692;28;20038;-70
2021/05/21 10:29:23;;;;;;;8.23;1.67;;;;;;;;;;5057902;28;20024;-69
2021/05/21 10:31:53;;;;;;;5.18;1.55;;;;;;;;;;5057872;28;20064;-69
2021/05/21 10:34:23;;;;;;;7.68;1.48;;;;;;;;;;5058329;28;20079;-68
2021/05/21 10:36:50;;;;;;;3.65;1.20;;;;;;;;;;5059312;28;20693;-67
2021/05/21 10:39:20;;;;;;;4.93;1.40;;;;;;;;;;5062834;28;20027;-68
2021/05/21 10:41:53;;;;;;;7.10;1.77;;;;;;;;;;5059709;28;20049;-68
2021/05/21 10:44:26;;;;;;;5.53;1.55;;;;;;;;;;5056942;28;20094;-68
2021/05/21 10:47:12;;;;;;;7.00;1.65;;;;;;;;;;5057599;28;20032;-70
2021/05/21 10:49:38;;;;;;;5.53;1.70;;;;;;;;;;5060401;28;20028;-67
2021/05/21 10:52:06;;;;;;;6.28;1.65;;;;;;;;;;5060360;28;20020;-71
2021/05/21 10:54:34;;;;;;;8.20;1.42;;;;;;;;;;5059287;28;20108;-76
2021/05/21 10:57:12;;;;;;;6.05;1.60;;;;;;;;;;5060620;28;20092;-73
2021/05/21 10:59:42;;;;;;;6.77;1.90;;;;;;;;;;5055914;28;20017;-71
2021/05/21 11:02:09;;;;;;;4.20;1.35;;;;;;;;;;5060417;28;20048;-72
2021/05/21 11:04:35;;;;;;;9.38;1.88;;;;;;;;;;5058706;28;20014;-71
2021/05/21 11:07:06;;;;;;;8.15;1.85;;;;;;;;;;5060164;28;20101;-71
2021/05/21 11:09:42;;;;;;;8.50;1.88;;;;;;;;;;5060867;28;20016;-71
2021/05/21 11:12:09;;;;;;;6.35;1.58;;;;;;;;;;5061389;28;20013;-71
2021/05/21 11:14:37;;;;;;;10.05;2.55;;;;;;;;;;5062475;28;20017;-70
2021/05/21 11:17:12;;;;;;;11.15;2.33;;;;;;;;;;5063670;28;20020;-69
2021/05/21 11:19:46;;;;;;;11.38;3.22;;;;;;;;;;5061854;28;20017;-70
2021/05/21 11:22:22;;;;;;;7.28;1.77;;;;;;;;;;5064786;28;20478;-69
2021/05/21 11:24:51;;;;;;;6.18;1.58;;;;;;;;;;5058942;28;20441;-69
2021/05/21 11:27:17;;;;;;;9.77;1.67;;;;;;;;;;5052114;28;20474;-70
2021/05/21 11:29:46;;;;;;;11.02;1.30;;;;;;;;;;5055361;28;20100;-70
2021/05/21 11:32:12;;;;;;;13.20;3.00;;;;;;;;;;5056808;28;20104;-69
2021/05/21 11:34:38;;;;;;;8.73;1.90;;;;;;;;;;5056291;28;20474;-70
2021/05/21 11:37:06;;;;;;;10.18;2.05;;;;;;;;;;5056517;28;20040;-69
2021/05/21 11:39:34;;;;;;;6.88;1.67;;;;;;;;;;5054461;28;20048;-68
2021/05/21 11:42:04;;;;;;;9.20;1.73;;;;;;;;;;5054473;28;20013;-67
2021/05/21 11:44:30;;;;;;;;;;;;;;;;;;5056857;28;20013;-70
2021/05/21 11:47:04;;;;;;;9.30;1.52;;;;;;;;;;5056864;28;19912;-67
2021/05/21 11:49:30;;;;;;;8.13;1.83;;;;;;;;;;5055257;28;20016;-70
2021/05/21 11:52:05;;;;;;;16.65;2.00;;;;;;;;;;5064194;28;20363;-72
2021/05/21 11:54:31;;;;;;;10.20;2.35;;;;;;;;;;5064023;28;20028;-70
2021/05/21 11:56:58;;;;;;;8.35;1.80;;;;;;;;;;5059815;28;20044;-70
2021/05/21 11:59:25;;;;;;;7.60;1.70;;;;;;;;;;5062677;28;20024;-70
2021/05/21 12:01:52;;;;;;;9.10;1.42;;;;;;;;;;5063734;28;20045;-69
2021/05/21 12:04:20;;;;;;;8.27;1.45;;;;;;;;;;5058008;28;20025;-68
2021/05/21 12:06:49;;;;;;;5.57;1.30;;;;;;;;;;5061406;28;20024;-68
2021/05/21 12:09:16;;;;;;;9.35;1.52;;;;;;;;;;5059178;28;20064;-68
2021/05/21 12:11:43;;;;;;;7.80;1.52;;;;;;;;;;5064595;28;20041;-70
2021/05/21 12:14:14;;;;;;;6.93;1.63;;;;;;;;;;5061130;28;20478;-69
2021/05/21 12:16:42;;;;;;;6.43;1.73;;;;;;;;;;5057345;28;20021;-75
2021/05/21 12:19:09;;;;;;;9.40;1.77;;;;;;;;;;5056215;28;20025;-72
2021/05/21 12:21:36;;;;;;;7.50;1.55;;;;;;;;;;5057321;28;20115;-71
2021/05/21 12:24:03;;;;;;;9.25;1.80;;;;;;;;;;5051052;28;20097;-74
2021/05/21 12:26:30;;;;;;;6.40;1.50;;;;;;;;;;5063491;28;20025;-77
2021/05/21 12:28:58;;;;;;;7.53;1.27;;;;;;;;;;5055162;28;20028;-74
2021/05/21 12:31:26;;;;;;;4.20;1.67;;;;;;;;;;5059000;28;20370;-72
2021/05/21 12:33:52;;;;;;;8.07;1.73;;;;;;;;;;5067792;28;20365;-74
2021/05/21 12:36:22;;;;;;;9.98;1.67;;;;;;;;;;5059087;28;20100;-74
2021/05/21 12:38:50;;;;;;;5.80;1.60;;;;;;;;;;5062570;28;20045;-70
2021/05/21 12:41:16;;;;;;;8.07;2.25;;;;;;;;;;5060116;28;20136;-71
2021/05/21 12:43:42;;;;;;;7.25;1.17;;;;;;;;;;5060861;28;20479;-75
2021/05/21 12:46:09;;;;;;;7.97;1.77;;;;;;;;;;5062133;28;20029;-76
2021/05/21 12:48:35;;;;;;;6.10;1.35;;;;;;;;;;5063965;28;20096;-76
2021/05/21 12:51:12;;;;;;;5.05;1.15;;;;;;;;;;5067301;28;20455;-76
2021/05/21 12:53:38;;;;;;;6.68;1.45;;;;;;;;;;5059962;28;20033;-74
2021/05/21 12:56:04;;;;;;;4.40;1.45;;;;;;;;;;5059132;28;20017;-73
2021/05/21 12:58:47;;;;;;;6.93;1.52;;;;;;;;;;5060009;28;20028;-73
2021/05/21 13:01:18;;;;;;;3.50;1.10;;;;;;;;;;5051632;28;20056;-73
2021/05/21 13:03:51;;;;;;;10.52;1.35;;;;;;;;;;5051714;28;20040;-73
2021/05/21 13:06:34;;;;;;;9.02;1.52;;;;;;;;;;5051307;28;20025;-74
2021/05/21 13:09:04;;;;;;;4.85;1.00;;;;;;;;;;5059905;28;20513;-75
2021/05/21 13:11:31;;;;;;;3.55;1.05;;;;;;;;;;5059798;28;20035;-73
2021/05/21 13:13:58;;;;;;;5.93;1.45;;;;;;;;;;5058431;28;20085;-74
2021/05/21 13:16:25;;;;;;;10.15;1.88;;;;;;;;;;5060362;28;20068;-75
2021/05/21 13:18:51;;;;;;;9.00;1.65;;;;;;;;;;5061265;28;20028;-74
2021/05/21 13:21:17;;;;;;;4.53;1.45;;;;;;;;;;5057688;28;20036;-74
2021/05/21 13:24:01;;;;;;;3.38;1.20;;;;;;;;;;5050872;28;20052;-72
2021/05/21 13:26:27;;;;;;;7.32;1.27;;;;;;;;;;5050271;28;20615;-70
2021/05/21 13:28:57;;;;;;;5.28;1.15;;;;;;;;;;5050221;28;20056;-74
2021/05/21 13:31:24;;;;;;;;;;;;;;;;;;5053829;28;20035;-77
2021/05/21 13:33:50;;;;;;;9.50;1.63;;;;;;;;;;5051713;28;19921;-74
2021/05/21 13:36:16;;;;;;;4.75;1.52;;;;;;;;;;5050242;28;20032;-73
2021/05/21 13:38:43;;;;;;;6.55;1.20;;;;;;;;;;5051551;28;20032;-73
2021/05/21 13:41:09;;;;;;;5.57;1.60;;;;;;;;;;5050163;28;20108;-73
2021/05/21 13:43:36;;;;;;;6.97;1.75;;;;;;;;;;5051502;28;20039;-74
2021/05/21 13:46:02;;;;;;;7.03;1.30;;;;;;;;;;5049772;28;20395;-75
2021/05/21 13:48:28;;;;;;;8.02;1.60;;;;;;;;;;5050163;28;20025;-76
2021/05/21 13:50:57;;;;;;;11.27;1.60;;;;;;;;;;5066774;28;20115;-77
2021/05/21 13:53:24;;;;;;;9.23;2.35;;;;;;;;;;5060749;28;20035;-78
2021/05/21 13:55:50;;;;;;;6.28;1.25;;;;;;;;;;5057367;28;20501;-74
2021/05/21 13:58:17;;;;;;;7.50;1.42;;;;;;;;;;5050979;28;20021;-75
2021/05/21 14:00:43;;;;;;;10.98;1.63;;;;;;;;;;5048686;28;20021;-77
2021/05/21 14:03:09;;;;;;;9.27;1.88;;;;;;;;;;5063577;28;20035;-76
2021/05/21 14:05:36;;;;;;;7.78;1.42;;;;;;;;;;5049498;28;20147;-75
2021/05/21 14:08:03;;;;;;;7.82;2.22;;;;;;;;;;5052335;28;20032;-75
2021/05/21 14:10:30;;;;;;;11.60;1.50;;;;;;;;;;5053445;28;20048;-76
2021/05/21 14:12:57;;;;;;;6.45;1.88;;;;;;;;;;5048989;28;20025;-76
2021/05/21 14:15:24;;;;;;;5.13;1.52;;;;;;;;;;5049751;28;20017;-77
2021/05/21 14:17:51;;;;;;;5.93;1.50;;;;;;;;;;5051530;28;20473;-78
2021/05/21 14:20:17;;;;;;;8.65;1.70;;;;;;;;;;5050367;28;20536;-77
2021/05/21 14:22:46;;;;;;;9.50;1.85;;;;;;;;;;5050089;28;20389;-76
2021/05/21 14:25:15;;;;;;;6.10;1.63;;;;;;;;;;5052316;28;20029;-80
2021/05/21 14:27:41;;;;;;;10.73;1.77;;;;;;;;;;5052536;28;21409;-74
2021/05/21 14:30:09;;;;;;;9.55;1.50;;;;;;;;;;5050564;28;20401;-72
2021/05/21 14:32:37;;;;;;;11.75;2.00;;;;;;;;;;5056714;28;20433;-75
2021/05/21 14:35:04;;;;;;;5.97;0.90;;;;;;;;;;5071225;28;20028;-75
2021/05/21 14:37:30;;;;;;;5.78;1.13;;;;;;;;;;5056890;28;20029;-75
2021/05/21 14:39:56;;;;;;;5.90;0.90;;;;;;;;;;5056673;28;20055;-76
2021/05/21 14:42:24;;;;;;;7.60;1.13;;;;;;;;;;5062612;28;20130;-73
2021/05/21 14:44:50;;;;;;;5.43;0.60;;;;;;;;;;5056308;28;20032;-71
2021/05/21 14:47:18;;;;;;;8.57;0.95;;;;;;;;;;5068829;28;20017;-73
2021/05/21 14:49:44;;;;;;;8.13;1.08;;;;;;;;;;5060951;28;20021;-75